Time;durP1;ratioP1;P1;durP2;ratioP2;P2;SDS_P1;SDS_P2;PMS_P1;PMS_P2;Temp;Humidity;BMP_temperature;BMP_pressure;BME280_temperature;BME280_humidity;BME280_pressure;Samples;Min_cycle;Max_cycle;Signal;HPM_P1;HPM_P2
2021/07/18 08:58:30;;;;;;;6.70;5.07;;;;;;;30.09;41.36;93999.06;5897885;23;20724;-83
2021/07/18 09:00:56;;;;;;;6.50;5.87;;;;;;;30.24;41.61;94001.75;4865566;29;20446;-83
2021/07/18 09:03:23;;;;;;;6.80;6.10;;;;;;;30.26;41.56;93996.06;4879739;29;20462;-84
2021/07/18 09:05:53;;;;;;;7.90;6.00;;;;;;;30.34;40.22;94012.53;4879921;29;20469;-87
2021/07/18 09:08:23;;;;;;;6.43;4.90;;;;;;;30.71;40.35;93993.25;4880732;29;20442;-84
2021/07/18 09:10:51;;;;;;;14.90;7.03;;;;;;;31.05;40.71;94001.50;4880569;29;20454;-84
2021/07/18 09:13:20;;;;;;;5.93;5.43;;;;;;;31.19;39.34;93990.88;4879408;29;20442;-84
2021/07/18 09:15:50;;;;;;;9.27;5.70;;;;;;;31.24;38.90;93985.44;4879711;29;20851;-84
2021/07/18 09:18:19;;;;;;;6.27;4.97;;;;;;;31.16;40.69;93986.00;4879474;29;20544;-85
2021/07/18 09:20:48;;;;;;;5.83;5.27;;;;;;;31.01;40.43;93972.53;4876310;29;20462;-83
2021/07/18 09:23:16;;;;;;;7.50;5.80;;;;;;;31.32;41.38;93982.13;4880146;29;20549;-84
2021/07/18 09:25:44;;;;;;;8.07;5.93;;;;;;;31.36;40.89;93980.47;4864541;29;20563;-85
2021/07/18 09:28:15;;;;;;;8.77;6.53;;;;;;;31.25;40.89;93978.94;4861109;29;20463;-84
2021/07/18 09:30:43;;;;;;;9.50;6.17;;;;;;;31.18;41.12;93967.56;4864031;29;20532;-84
2021/07/18 09:33:24;;;;;;;8.90;5.40;;;;;;;31.44;38.98;93977.16;4864318;29;20458;-83
2021/07/18 09:35:51;;;;;;;6.80;5.40;;;;;;;31.22;40.07;93965.91;4862635;29;20487;-85
2021/07/18 09:38:22;;;;;;;9.47;5.87;;;;;;;31.16;40.68;93961.63;4820607;29;20533;-83
2021/07/18 09:40:56;;;;;;;13.83;6.20;;;;;;;31.26;40.27;93985.97;4869653;29;20533;-85
2021/07/18 09:43:23;;;;;;;7.13;4.70;;;;;;;31.11;39.10;93983.31;4876700;29;20458;-83
2021/07/18 09:45:57;;;;;;;7.90;6.20;;;;;;;31.22;38.01;93981.34;4876275;29;20466;-84
2021/07/18 09:48:40;;;;;;;6.73;4.90;;;;;;;31.04;37.86;93970.06;4876222;29;20458;-83
2021/07/18 09:51:10;;;;;;;5.33;4.93;;;;;;;30.94;38.56;93983.69;4871205;29;20493;-84
2021/07/18 09:53:38;;;;;;;6.70;5.20;;;;;;;30.89;39.42;93969.31;4879692;29;20450;-84
2021/07/18 09:56:08;;;;;;;6.90;4.60;;;;;;;30.97;39.03;93972.28;4865916;29;20501;-83
2021/07/18 09:58:36;;;;;;;8.30;5.30;;;;;;;30.58;38.12;93961.28;4863456;29;20472;-85
2021/07/18 10:01:06;;;;;;;9.70;5.53;;;;;;;30.72;38.92;93964.28;4898715;29;20461;-83
2021/07/18 10:03:35;;;;;;;6.40;5.03;;;;;;;30.83;38.09;93958.50;4899294;29;20456;-87
2021/07/18 10:06:16;;;;;;;6.23;5.47;;;;;;;30.76;38.91;93959.91;4881455;29;20533;-82
2021/07/18 10:08:44;;;;;;;4.80;4.27;;;;;;;30.63;37.47;93976.75;4882199;29;20488;-79
2021/07/18 10:11:13;;;;;;;10.20;5.07;;;;;;;30.66;36.70;93963.47;4900705;29;20492;-82
2021/07/18 10:13:43;;;;;;;8.37;5.43;;;;;;;30.65;36.82;93950.19;4899656;29;20780;-82
2021/07/18 10:16:12;;;;;;;10.63;5.60;;;;;;;30.90;36.85;93970.94;4898645;29;20507;-81
2021/07/18 10:18:42;;;;;;;8.53;5.30;;;;;;;30.97;37.56;93950.59;4899434;29;20531;-81
2021/07/18 10:21:14;;;;;;;15.00;5.07;;;;;;;31.04;37.08;93950.28;4899254;29;20512;-82
2021/07/18 10:23:43;;;;;;;5.33;4.80;;;;;;;30.93;37.83;93949.50;4901516;29;20925;-82
2021/07/18 10:26:13;;;;;;;7.37;5.50;;;;;;;31.19;35.82;93944.78;4900043;29;20532;-81
2021/07/18 10:28:41;;;;;;;12.63;6.40;;;;;;;31.23;36.67;93945.88;4861660;29;20452;-81
2021/07/18 10:31:16;;;;;;;7.87;5.33;;;;;;;31.43;37.01;93945.69;4897782;29;20545;-82
2021/07/18 10:33:46;;;;;;;9.50;7.87;;;;;;;31.48;37.12;93950.28;4898507;29;20954;-83
2021/07/18 10:36:13;;;;;;;10.13;4.80;;;;;;;31.53;37.93;93950.25;4897933;29;20480;-81
2021/07/18 10:38:41;;;;;;;5.83;5.30;;;;;;;31.61;38.86;93930.66;4897955;29;20531;-81
2021/07/18 10:41:08;;;;;;;12.30;5.63;;;;;;;31.67;37.21;93940.38;4897670;29;20516;-82
2021/07/18 10:43:37;;;;;;;8.03;5.53;;;;;;;31.55;38.89;93942.66;4897869;29;20532;-85
2021/07/18 10:46:05;;;;;;;6.20;5.50;;;;;;;31.59;38.66;93929.31;4897756;29;20460;-81
2021/07/18 10:48:45;;;;;;;6.23;5.73;;;;;;;31.61;38.49;93933.38;4900738;29;20445;-80
2021/07/18 10:54:42;;;;;;;10.00;6.67;;;;;;;31.65;36.91;93936.31;4882405;29;20416;-82
2021/07/18 10:57:25;;;;;;;10.60;4.97;;;;;;;31.55;36.27;93934.50;4882159;29;20524;-80
2021/07/18 10:59:52;;;;;;;10.87;5.40;;;;;;;31.51;36.78;93938.03;4882789;29;20832;-85
2021/07/18 11:02:21;;;;;;;5.30;4.90;;;;;;;31.52;37.34;93940.50;4882104;29;20448;-83
2021/07/18 11:04:51;;;;;;;5.90;5.43;;;;;;;31.65;36.77;93933.59;4882443;29;20939;-81
2021/07/18 11:07:37;;;;;;;17.13;5.43;;;;;;;31.57;36.61;93931.50;4881833;29;20442;-81
2021/07/18 11:10:17;;;;;;;7.47;4.43;;;;;;;31.65;35.20;93928.19;4882318;29;20470;-81
2021/07/18 11:12:45;;;;;;;8.40;4.90;;;;;;;31.63;35.25;93922.22;4881788;29;20442;-80
2021/07/18 11:15:30;;;;;;;14.80;6.20;;;;;;;31.68;35.19;93914.03;4882714;29;20476;-82
2021/07/18 11:18:00;;;;;;;5.60;5.10;;;;;;;31.44;34.28;93914.78;4837138;29;20805;-83
2021/07/18 11:20:52;;;;;;;5.30;4.80;;;;;;;31.11;35.02;93940.75;4881969;29;20457;-83
2021/07/18 11:23:20;;;;;;;6.23;5.67;;;;;;;30.90;36.14;93936.53;4882745;29;20445;-80
2021/07/18 11:25:52;;;;;;;5.53;5.03;;;;;;;30.97;36.97;93925.41;4834664;29;20922;-81
2021/07/18 11:28:39;;;;;;;9.90;5.20;;;;;;;31.31;36.02;93922.75;4881583;29;20449;-81
2021/07/18 11:31:30;;;;;;;7.03;5.80;;;;;;;31.30;35.94;93919.25;4806107;29;20817;-84
2021/07/18 11:34:00;;;;;;;5.63;5.13;;;;;;;31.25;36.85;93919.28;4804051;29;20476;-82
2021/07/18 11:36:54;;;;;;;6.33;4.87;;;;;;;31.05;36.13;93911.25;4806059;29;20499;-80
2021/07/18 11:39:25;;;;;;;5.20;4.70;;;;;;;30.94;35.63;93913.22;4806027;29;20933;-81
2021/07/18 11:41:52;;;;;;;9.43;5.43;;;;;;;30.73;35.83;93909.00;4806055;29;20454;-82
2021/07/18 11:44:28;;;;;;;5.23;4.60;;;;;;;30.68;35.86;93907.13;4806014;29;20528;-82
2021/07/18 11:47:01;;;;;;;5.43;4.93;;;;;;;30.46;36.22;93914.78;4805968;29;21013;-84
2021/07/18 11:49:31;;;;;;;5.90;5.27;;;;;;;30.50;35.45;93926.69;4805959;29;20555;-83
2021/07/18 11:52:01;;;;;;;4.53;4.13;;;;;;;30.39;34.72;93931.34;4806501;29;21088;-80
2021/07/18 11:54:29;;;;;;;5.50;5.00;;;;;;;30.30;34.76;93915.91;4806201;29;21325;-84
2021/07/18 11:56:56;;;;;;;10.37;5.00;;;;;;;30.37;35.01;93922.69;4805781;29;20778;-81
2021/07/18 11:59:25;;;;;;;5.90;5.40;;;;;;;30.36;35.08;93925.63;4805064;29;21036;-83
2021/07/18 12:01:54;;;;;;;4.90;4.47;;;;;;;30.50;35.38;93921.25;4805695;29;20460;-81
2021/07/18 12:27:54;;;;;;;6.73;5.40;;;;;;;31.09;38.24;93899.56;4873144;29;20453;-81
2021/07/18 12:30:23;;;;;;;5.60;4.47;;;;;;;31.06;37.62;93893.91;4864397;29;20451;-81
2021/07/18 12:32:50;;;;;;;6.40;5.80;;;;;;;31.13;38.39;93888.97;4848108;29;20538;-81
2021/07/18 12:35:18;;;;;;;6.07;5.50;;;;;;;31.22;37.77;93878.34;4847901;29;20545;-81
2021/07/18 12:37:46;;;;;;;5.83;4.90;;;;;;;31.22;37.29;93865.59;4880831;29;20905;-81
2021/07/18 12:40:13;;;;;;;6.67;5.83;;;;;;;31.36;38.06;93858.44;4880572;29;20537;-81
2021/07/18 12:46:03;;;;;;;7.30;5.03;;;;;;;31.28;38.96;93867.19;4879105;29;20493;-81
2021/07/18 12:48:30;;;;;;;8.17;5.93;;;;;;;31.14;39.37;93868.91;4880778;29;20438;-83
2021/07/18 12:50:57;;;;;;;5.90;5.40;;;;;;;30.85;42.17;93868.00;4880386;29;20479;-81
2021/07/18 12:53:25;;;;;;;8.37;5.73;;;;;;;30.71;42.79;93868.66;4880343;29;20438;-83
2021/07/18 12:55:58;;;;;;;5.27;4.70;;;;;;;30.60;37.84;93877.91;4880085;29;20967;-83
2021/07/18 12:58:27;;;;;;;6.03;5.10;;;;;;;30.65;36.22;93875.19;4880828;29;20478;-83
2021/07/18 13:01:04;;;;;;;6.13;5.63;;;;;;;30.65;36.22;93875.19;4917558;29;20919;-84
2021/07/18 13:03:37;;;;;;;5.27;4.83;;;;;;;30.72;36.86;93875.69;4861024;29;20536;-83
2021/07/18 13:06:44;;;;;;;6.30;5.10;;;;;;;30.74;37.02;93870.00;4869386;29;20446;-82
2021/07/18 13:09:21;;;;;;;10.83;6.77;;;;;;;30.87;37.70;93860.41;4877825;29;20462;-84
2021/07/18 13:11:52;;;;;;;7.00;4.57;;;;;;;30.66;36.05;93854.34;4878551;29;20481;-82
2021/07/18 13:14:21;;;;;;;8.30;4.40;;;;;;;30.60;36.50;93856.25;4877946;29;20446;-83
2021/07/18 13:16:50;;;;;;;10.13;4.70;;;;;;;30.55;36.59;93858.94;4878213;29;20981;-82
2021/07/18 13:19:18;;;;;;;6.03;4.80;;;;;;;30.52;37.53;93854.91;4877965;29;20489;-83
2021/07/18 13:21:57;;;;;;;5.77;5.23;;;;;;;30.56;37.30;93860.56;4877897;29;20552;-83
2021/07/18 13:24:31;;;;;;;5.27;4.87;;;;;;;30.61;38.67;93860.56;4887172;29;20448;-83
2021/07/18 13:27:10;;;;;;;6.03;5.27;;;;;;;30.76;38.56;93844.22;4898478;29;20483;-83
2021/07/18 13:29:40;;;;;;;6.27;5.77;;;;;;;30.86;39.17;93842.53;4898705;29;20484;-82
2021/07/18 13:32:12;;;;;;;8.57;5.73;;;;;;;30.95;38.93;93846.28;4898853;29;20445;-83
2021/07/18 13:34:41;;;;;;;6.40;5.30;;;;;;;31.01;38.33;93826.19;4881079;29;21191;-82
2021/07/18 13:37:08;;;;;;;6.27;5.47;;;;;;;31.01;38.64;93815.34;4898488;29;20481;-84
2021/07/18 13:39:35;;;;;;;5.90;5.30;;;;;;;31.07;40.21;93827.75;4898255;29;20950;-82
2021/07/18 13:42:10;;;;;;;7.63;5.93;;;;;;;31.06;40.29;93820.72;4898985;29;20909;-83
2021/07/18 13:48:00;;;;;;;8.87;6.10;;;;;;;31.18;41.27;93818.47;4898133;29;21004;-82
2021/07/18 13:50:27;;;;;;;12.03;6.07;;;;;;;31.27;42.61;93822.22;4899595;29;20525;-84
2021/07/18 13:52:54;;;;;;;9.17;5.87;;;;;;;31.23;40.98;93810.31;4899129;29;20447;-83
2021/07/18 13:55:22;;;;;;;7.17;6.40;;;;;;;31.25;41.57;93813.56;4899414;29;20445;-83
2021/07/18 13:57:49;;;;;;;6.83;6.07;;;;;;;31.25;41.04;93807.31;4899594;29;20491;-82
2021/07/18 14:00:17;;;;;;;7.40;5.47;;;;;;;31.39;41.77;93797.41;4899912;29;20991;-83
2021/07/18 14:02:43;;;;;;;6.87;6.17;;;;;;;31.58;41.96;93813.78;4865846;29;20996;-82
2021/07/18 14:05:12;;;;;;;6.23;5.63;;;;;;;31.73;41.66;93808.22;4898331;29;20691;-82
2021/07/18 14:11:01;;;;;;;8.77;6.20;;;;;;;31.90;40.92;93794.19;4896832;29;20448;-82
2021/07/18 14:13:27;;;;;;;9.77;6.33;;;;;;;31.82;41.29;93800.28;4898853;29;20867;-83
2021/07/18 14:15:54;;;;;;;6.40;5.80;;;;;;;31.52;42.20;93796.75;4849943;29;20820;-83
2021/07/18 14:18:21;;;;;;;7.00;6.00;;;;;;;31.06;42.99;93809.88;4897955;29;20480;-82
2021/07/18 14:20:52;;;;;;;8.00;6.63;;;;;;;30.82;44.97;93815.22;4899123;29;20841;-82
2021/07/18 14:23:19;;;;;;;7.00;6.40;;;;;;;30.63;45.40;93808.81;4854545;29;20455;-82
2021/07/18 14:25:46;;;;;;;14.07;7.07;;;;;;;30.68;45.26;93806.91;4901721;29;20536;-82
2021/07/18 14:28:13;;;;;;;7.23;6.40;;;;;;;30.46;45.86;93799.16;4901690;29;20440;-81
2021/07/18 14:30:40;;;;;;;9.70;6.10;;;;;;;30.48;45.46;93793.47;4901872;29;20448;-83
2021/07/18 14:33:09;;;;;;;8.03;7.23;;;;;;;30.45;44.36;93794.84;4902281;29;20467;-83
2021/07/18 14:49:04;;;;;;;7.63;6.90;;;;;;;30.43;46.52;93790.78;4900697;29;20440;-82
2021/07/18 14:51:35;;;;;;;8.87;7.30;;;;;;;30.44;47.01;93800.53;4852890;29;20520;-82
2021/07/18 14:54:02;;;;;;;7.67;6.97;;;;;;;30.46;47.34;93807.28;4901203;29;20448;-82
2021/07/18 14:56:29;;;;;;;11.77;6.13;;;;;;;30.47;47.25;93813.50;4900729;29;20448;-83
2021/07/18 14:58:56;;;;;;;11.10;6.37;;;;;;;30.43;47.51;93812.44;4901076;29;20488;-81
2021/07/18 15:01:23;;;;;;;7.03;6.33;;;;;;;30.46;47.39;93803.78;4901026;29;20441;-81
2021/07/18 15:03:50;;;;;;;8.00;7.00;;;;;;;30.47;47.84;93797.25;4868934;29;20496;-82
2021/07/18 15:06:18;;;;;;;7.17;6.60;;;;;;;30.42;49.71;93783.75;4901719;29;20517;-80
2021/07/18 15:08:45;;;;;;;7.77;6.90;;;;;;;30.39;50.50;93787.84;4901107;29;20441;-80
2021/07/18 15:11:12;;;;;;;8.47;7.23;;;;;;;30.24;51.33;93792.50;4901323;29;20894;-81
2021/07/18 15:13:39;;;;;;;7.43;6.83;;;;;;;30.24;50.74;93785.22;4900812;29;20872;-82
2021/07/18 15:16:06;;;;;;;10.00;7.13;;;;;;;30.09;52.62;93788.81;4901151;29;20460;-81
2021/07/18 15:18:33;;;;;;;8.27;7.47;;;;;;;29.99;52.32;93788.81;4900372;29;21097;-81
2021/07/18 15:21:00;;;;;;;8.47;7.40;;;;;;;29.82;52.91;93780.25;4867499;29;20983;-82
2021/07/18 15:23:29;;;;;;;10.93;7.83;;;;;;;29.76;53.54;93779.41;4902329;29;20461;-85
2021/07/18 15:25:55;;;;;;;8.53;7.43;;;;;;;29.74;53.58;93778.09;4868396;29;20525;-83
2021/07/18 15:28:22;;;;;;;9.00;7.87;;;;;;;29.71;53.64;93778.63;4902414;29;20540;-83
2021/07/18 15:30:49;;;;;;;8.97;8.07;;;;;;;29.67;54.01;93772.16;4901499;29;20489;-83
2021/07/18 15:33:16;;;;;;;10.03;8.27;;;;;;;29.74;53.64;93778.09;4901197;29;20456;-84
2021/07/18 15:35:43;;;;;;;8.97;8.07;;;;;;;29.71;53.65;93767.81;4901780;29;20439;-82
2021/07/18 15:38:10;;;;;;;8.77;7.97;;;;;;;29.74;53.29;93753.75;4901775;29;20564;-85
2021/07/18 15:40:39;;;;;;;10.10;8.93;;;;;;;29.57;52.21;93745.97;4900967;29;20817;-84
2021/07/18 15:43:06;;;;;;;8.33;7.53;;;;;;;29.52;53.78;93744.09;4901550;29;20470;-86
2021/07/18 15:45:33;;;;;;;11.07;8.87;;;;;;;29.38;51.99;93737.63;4900281;29;20827;-82
2021/07/18 15:48:00;;;;;;;12.20;8.37;;;;;;;29.43;53.38;93739.50;4900249;29;20532;-85
2021/07/18 15:50:28;;;;;;;9.97;8.93;;;;;;;29.51;53.01;93742.50;4900785;29;21028;-86
2021/07/18 15:52:55;;;;;;;15.53;8.80;;;;;;;29.53;52.53;93740.31;4900827;29;20452;-85
2021/07/18 15:55:22;;;;;;;10.60;9.10;;;;;;;29.59;52.04;93744.63;4899997;29;20485;-83
2021/07/18 15:57:50;;;;;;;9.77;8.30;;;;;;;29.59;51.96;93747.31;4900420;29;20919;-85
2021/07/18 16:00:17;;;;;;;14.33;9.00;;;;;;;29.56;52.50;93747.88;4900114;29;20552;-86
2021/07/18 16:02:44;;;;;;;9.80;8.90;;;;;;;29.53;51.84;93748.44;4899818;29;20488;-84
2021/07/18 16:05:13;;;;;;;8.83;8.03;;;;;;;29.58;52.76;93763.81;4900195;29;20524;-79
2021/07/18 16:07:42;;;;;;;13.47;8.83;;;;;;;29.65;51.84;93771.63;4899644;29;20528;-82
2021/07/18 16:10:11;;;;;;;10.10;8.67;;;;;;;29.75;52.83;93780.50;4852560;29;20457;-82
2021/07/18 16:12:38;;;;;;;14.60;10.43;;;;;;;29.75;52.14;93779.69;4900342;29;20524;-81
2021/07/18 16:15:09;;;;;;;11.00;10.10;;;;;;;29.69;52.36;93786.22;4899455;29;20909;-79
2021/07/18 16:17:36;;;;;;;13.77;9.30;;;;;;;29.61;53.09;93790.31;4851340;29;20543;-81
2021/07/18 16:20:04;;;;;;;12.90;9.57;;;;;;;29.60;51.71;93788.69;4899391;29;20433;-83
2021/07/18 16:22:31;;;;;;;13.53;9.90;;;;;;;29.57;51.98;93805.47;4899314;29;20523;-82
2021/07/18 16:24:59;;;;;;;10.17;9.07;;;;;;;29.62;54.46;93820.84;4899826;29;20884;-80
2021/07/18 16:27:26;;;;;;;15.73;9.10;;;;;;;29.65;51.53;93823.00;4899142;29;20453;-81
2021/07/18 16:29:53;;;;;;;10.10;9.10;;;;;;;29.56;51.86;93826.28;4899573;29;20519;-82
2021/07/18 16:32:21;;;;;;;16.20;9.70;;;;;;;29.67;52.17;93828.94;4899371;29;20570;-81
2021/07/18 16:34:48;;;;;;;11.20;9.83;;;;;;;29.73;52.55;93835.97;4899752;29;20448;-82
2021/07/18 16:37:18;;;;;;;12.03;9.00;;;;;;;29.89;52.41;93853.78;4898918;29;20448;-81
2021/07/18 16:39:44;;;;;;;11.50;9.37;;;;;;;30.03;52.46;93865.66;4866552;29;20451;-82
2021/07/18 16:42:11;;;;;;;9.87;8.87;;;;;;;30.01;50.64;93858.88;4899093;29;21178;-79
2021/07/18 16:44:40;;;;;;;15.20;10.33;;;;;;;29.72;52.08;93861.38;4898863;29;20520;-81
2021/07/18 16:47:07;;;;;;;10.00;8.90;;;;;;;29.48;53.16;93853.84;4898841;29;20512;-81
2021/07/18 17:03:46;;;;;;;11.67;10.20;;;;;;;28.35;56.35;93889.88;4895706;29;20447;-81
2021/07/18 17:06:13;;;;;;;14.57;10.60;;;;;;;28.51;57.29;93885.31;4861345;29;20534;-82
2021/07/18 17:08:40;;;;;;;11.40;9.03;;;;;;;28.66;56.14;93898.06;4861262;29;20449;-79
2021/07/18 17:11:08;;;;;;;12.17;10.27;;;;;;;28.64;51.23;93916.41;4861639;29;20518;-80
2021/07/18 17:13:38;;;;;;;13.03;9.20;;;;;;;28.74;49.89;93921.84;4861393;29;21037;-83
2021/07/18 17:16:06;;;;;;;15.00;10.93;;;;;;;28.85;48.59;93922.69;4861370;29;20439;-82
2021/07/18 17:18:33;;;;;;;11.13;10.13;;;;;;;28.95;47.12;93928.94;4861047;29;20524;-81
2021/07/18 17:21:02;;;;;;;11.90;9.90;;;;;;;28.96;50.58;93925.16;4861395;29;20442;-80
2021/07/18 17:23:29;;;;;;;10.20;9.30;;;;;;;29.07;48.46;93926.00;4861414;29;20518;-80
2021/07/18 17:25:56;;;;;;;11.13;10.20;;;;;;;28.97;50.02;93929.50;4861544;29;20419;-82
2021/07/18 17:28:24;;;;;;;10.00;9.10;;;;;;;29.03;48.09;93924.09;4861240;29;20523;-82
2021/07/18 17:30:51;;;;;;;9.50;8.43;;;;;;;28.99;51.64;93927.34;4860996;29;20443;-79
2021/07/18 18:00:17;;;;;;;9.70;8.60;;;;;;;28.54;54.08;93970.34;4864020;29;20442;-85
2021/07/18 18:02:44;;;;;;;10.23;9.13;;;;;;;28.60;54.55;93961.19;4864497;29;20454;-83
2021/07/18 18:05:13;;;;;;;12.83;10.17;;;;;;;28.69;53.36;93962.34;4891108;29;20579;-83
2021/07/18 18:07:40;;;;;;;9.00;8.10;;;;;;;28.64;52.27;93975.81;4869445;29;20539;-79
2021/07/18 18:10:10;;;;;;;9.83;8.80;;;;;;;28.62;51.52;93983.34;4901728;29;21020;-80
2021/07/18 18:12:37;;;;;;;12.20;8.33;;;;;;;28.37;52.14;93989.47;4901682;29;20532;-81
2021/07/18 18:15:05;;;;;;;11.60;9.03;;;;;;;28.24;52.00;93993.41;4853968;29;20441;-82
2021/07/18 18:17:33;;;;;;;9.47;8.57;;;;;;;28.06;52.57;93996.53;4901805;29;20457;-83
2021/07/18 18:20:00;;;;;;;10.40;9.50;;;;;;;27.75;53.28;94004.38;4901927;29;20795;-82
2021/07/18 18:22:28;;;;;;;10.07;9.07;;;;;;;27.74;54.10;94005.44;4902616;29;20535;-80
2021/07/18 18:24:55;;;;;;;10.30;9.40;;;;;;;27.79;54.34;94009.28;4901840;29;20457;-83
2021/07/18 18:27:22;;;;;;;13.73;9.63;;;;;;;27.73;54.19;94025.41;4902205;29;20541;-81
2021/07/18 18:29:49;;;;;;;11.13;10.23;;;;;;;27.54;53.49;94026.84;4901584;29;20470;-82
2021/07/18 18:32:16;;;;;;;14.87;8.83;;;;;;;27.42;53.56;94034.25;4901293;29;20939;-80
2021/07/18 18:34:46;;;;;;;10.70;9.60;;;;;;;26.97;54.16;94038.06;4901362;29;20988;-80
2021/07/18 18:37:13;;;;;;;10.60;9.60;;;;;;;27.04;56.57;94046.00;4901698;29;20963;-80
2021/07/18 18:39:40;;;;;;;9.37;8.60;;;;;;;27.07;55.18;94059.75;4901425;29;20567;-82
2021/07/18 18:42:08;;;;;;;10.50;9.47;;;;;;;27.13;55.73;94053.34;4901519;29;20473;-81
2021/07/18 18:44:35;;;;;;;11.17;10.13;;;;;;;27.21;54.87;94051.31;4902189;29;20489;-80
2021/07/18 18:47:02;;;;;;;11.23;9.23;;;;;;;27.16;55.42;94044.75;4901450;29;20445;-82
2021/07/18 18:49:29;;;;;;;11.90;10.87;;;;;;;27.09;56.24;94046.84;4901411;29;20552;-82
2021/07/18 18:51:58;;;;;;;10.37;9.20;;;;;;;26.79;56.39;94041.09;4869180;29;20451;-81
2021/07/18 18:54:25;;;;;;;12.67;10.50;;;;;;;26.74;57.29;94055.28;4901230;29;20529;-81
2021/07/18 18:56:52;;;;;;;15.60;9.77;;;;;;;26.68;57.96;94045.53;4853005;29;20519;-82
2021/07/18 18:59:19;;;;;;;10.50;9.47;;;;;;;26.63;57.56;94048.16;4901312;29;20495;-81
2021/07/18 19:01:46;;;;;;;11.13;9.80;;;;;;;26.48;58.22;94043.38;4901000;29;20441;-82
2021/07/18 19:04:15;;;;;;;12.53;11.03;;;;;;;26.45;58.59;94057.34;4900766;29;20579;-82
2021/07/18 19:06:43;;;;;;;11.70;9.70;;;;;;;26.36;58.93;94058.03;4901470;29;20430;-80
2021/07/18 19:09:13;;;;;;;10.43;9.47;;;;;;;26.31;59.89;94064.13;4899724;29;20493;-80
2021/07/18 19:11:40;;;;;;;11.53;9.37;;;;;;;26.15;60.70;94056.88;4852472;29;20965;-79
2021/07/18 19:14:08;;;;;;;11.50;9.73;;;;;;;25.90;61.29;94052.72;4900834;29;20454;-81
2021/07/18 19:16:35;;;;;;;11.23;9.37;;;;;;;25.77;61.99;94055.75;4900839;29;20521;-80
2021/07/18 19:19:02;;;;;;;11.40;9.73;;;;;;;25.62;63.50;94053.59;4900650;29;20491;-79
2021/07/18 19:21:29;;;;;;;13.17;10.33;;;;;;;25.53;63.97;94070.38;4900646;29;20448;-88
2021/07/18 19:23:57;;;;;;;12.00;10.60;;;;;;;25.11;66.04;94067.97;4902606;29;20542;-84
2021/07/18 19:33:09;;;;;;;12.37;11.07;;;;;;;25.07;67.47;94066.81;4900079;29;21004;-88
2021/07/18 19:35:39;;;;;;;11.83;9.40;;;;;;;25.06;67.95;94078.63;4901786;29;20554;-88
2021/07/18 19:38:06;;;;;;;16.03;9.57;;;;;;;24.73;68.84;94089.19;4900996;29;20586;-86
2021/07/18 19:40:33;;;;;;;13.27;9.00;;;;;;;24.92;68.65;94069.19;4901208;29;20522;-84
2021/07/18 19:43:00;;;;;;;11.53;8.70;;;;;;;24.76;68.81;94091.41;4900334;29;20954;-87
2021/07/18 19:45:27;;;;;;;14.33;9.67;;;;;;;24.82;68.95;94090.44;4900722;29;20538;-89
2021/07/18 19:47:54;;;;;;;10.17;9.17;;;;;;;24.84;69.33;94105.25;4900096;29;20536;-85
2021/07/18 19:50:22;;;;;;;12.47;11.37;;;;;;;24.94;68.95;94094.75;4900508;29;20555;-85
2021/07/18 20:02:54;;;;;;;12.60;8.90;;;;;;;24.97;67.89;94104.19;4899456;29;20474;-88
2021/07/18 20:05:23;;;;;;;13.73;9.50;;;;;;;24.86;68.22;94094.28;4901463;29;20576;-90
2021/07/18 20:07:51;;;;;;;11.10;9.20;;;;;;;24.78;68.10;94100.03;4901613;29;20470;-88
2021/07/18 20:10:20;;;;;;;9.47;8.03;;;;;;;24.76;68.61;94102.13;4901040;29;20558;-88
2021/07/18 20:12:47;;;;;;;8.10;7.30;;;;;;;24.80;68.24;94100.59;4901388;29;20516;-88
2021/07/18 20:15:15;;;;;;;9.83;8.87;;;;;;;24.90;67.85;94098.16;4901675;29;20455;-89
2021/07/18 20:18:02;;;;;;;9.40;8.33;;;;;;;25.01;68.51;94095.44;4900916;29;21193;-88
2021/07/18 20:20:31;;;;;;;9.77;8.00;;;;;;;25.07;67.69;94092.88;4900327;29;20547;-88
2021/07/18 20:22:58;;;;;;;8.80;8.00;;;;;;;25.11;67.45;94105.56;4899489;29;20478;-88
2021/07/18 20:25:25;;;;;;;9.40;8.47;;;;;;;25.22;67.00;94102.03;4899499;29;21015;-87
2021/07/18 20:27:52;;;;;;;9.83;8.90;;;;;;;25.30;67.05;94109.72;4900269;29;20468;-88
2021/07/18 20:30:19;;;;;;;10.90;8.50;;;;;;;25.37;66.55;94114.94;4900590;29;20818;-88
2021/07/18 20:32:46;;;;;;;12.30;8.60;;;;;;;25.44;66.63;94120.16;4900343;29;20470;-88
2021/07/18 20:35:14;;;;;;;9.33;8.10;;;;;;;25.49;66.63;94128.31;4900174;29;20448;-89
2021/07/18 20:37:42;;;;;;;13.80;9.47;;;;;;;25.52;66.64;94122.47;4901136;29;20502;-89
2021/07/18 20:40:10;;;;;;;10.37;9.37;;;;;;;25.50;66.33;94124.59;4900716;29;20499;-89
2021/07/18 20:42:37;;;;;;;10.10;9.00;;;;;;;25.26;66.71;94118.50;4900919;29;21017;-90
2021/07/18 20:45:06;;;;;;;8.73;7.83;;;;;;;24.99;66.94;94120.91;4900785;29;20562;-90
2021/07/18 20:47:34;;;;;;;9.20;8.30;;;;;;;24.94;66.98;94120.78;4900769;29;20905;-88
2021/07/18 20:50:01;;;;;;;8.73;7.43;;;;;;;24.89;67.11;94134.09;4900563;29;20489;-89
2021/07/18 20:52:28;;;;;;;8.77;7.77;;;;;;;24.85;67.55;94124.84;4901085;29;20490;-89
2021/07/18 20:54:57;;;;;;;10.33;7.80;;;;;;;24.85;67.65;94130.22;4901456;29;20497;-90
2021/07/18 20:57:27;;;;;;;13.50;8.90;;;;;;;24.87;67.53;94117.41;4902027;29;20458;-90
2021/07/18 20:59:54;;;;;;;9.00;8.20;;;;;;;24.88;67.84;94122.53;4902580;29;20475;-90
2021/07/18 21:02:22;;;;;;;8.17;7.27;;;;;;;24.89;67.39;94123.38;4900517;29;20545;-89
2021/07/18 21:04:49;;;;;;;10.80;8.47;;;;;;;24.91;67.54;94132.00;4900399;29;20491;-89
2021/07/18 21:07:16;;;;;;;12.00;8.33;;;;;;;24.73;68.08;94124.06;4900757;29;20546;-87
2021/07/18 21:09:43;;;;;;;11.00;8.30;;;;;;;24.80;67.92;94130.13;4900015;29;20488;-89
2021/07/18 21:12:12;;;;;;;8.70;7.90;;;;;;;24.55;69.00;94133.06;4900558;29;20462;-87
2021/07/18 21:14:41;;;;;;;8.97;8.00;;;;;;;24.58;68.86;94135.31;4899566;29;21022;-90
2021/07/18 21:17:08;;;;;;;10.00;8.60;;;;;;;24.57;69.08;94134.47;4900080;29;20471;-88
2021/07/18 21:19:35;;;;;;;13.90;10.00;;;;;;;24.52;69.24;94134.34;4900236;29;20503;-90
2021/07/18 21:22:02;;;;;;;15.03;10.60;;;;;;;24.55;69.08;94133.88;4900157;29;20793;-90
2021/07/18 21:24:30;;;;;;;19.57;10.97;;;;;;;24.36;69.42;94137.75;4899694;29;20554;-90
2021/07/18 21:26:57;;;;;;;12.93;8.97;;;;;;;24.38;69.85;94144.53;4900407;29;20831;-90
2021/07/18 21:29:26;;;;;;;18.30;11.17;;;;;;;24.35;69.96;94145.00;4900208;29;20562;-90
2021/07/18 21:31:53;;;;;;;12.83;9.87;;;;;;;24.33;69.45;94139.03;4900292;29;20538;-88
2021/07/18 21:34:20;;;;;;;11.33;9.80;;;;;;;24.38;70.08;94135.66;4900371;29;20458;-89
2021/07/18 21:36:47;;;;;;;13.00;10.07;;;;;;;24.34;69.59;94145.22;4900617;29;20546;-90
2021/07/18 21:39:15;;;;;;;12.77;9.93;;;;;;;24.36;70.10;94145.81;4900371;29;20570;-90
2021/07/18 21:41:42;;;;;;;11.93;9.43;;;;;;;24.37;70.28;94134.03;4900545;29;20558;-89
2021/07/18 21:44:09;;;;;;;13.17;10.17;;;;;;;24.45;70.17;94133.66;4899908;29;20487;-90
2021/07/18 21:46:39;;;;;;;14.73;8.47;;;;;;;24.52;69.89;94130.84;4900580;29;20457;-90
2021/07/18 21:49:06;;;;;;;10.80;8.63;;;;;;;24.53;69.71;94124.44;4900175;29;20941;-88
2021/07/18 21:51:33;;;;;;;9.60;8.60;;;;;;;24.56;69.31;94127.47;4900239;29;20462;-90
2021/07/18 21:54:00;;;;;;;19.03;8.90;;;;;;;24.56;69.45;94124.78;4900082;29;20466;-91
2021/07/18 21:56:30;;;;;;;10.70;7.93;;;;;;;24.50;69.20;94120.38;4901816;29;20463;-90
2021/07/18 21:58:59;;;;;;;13.13;8.50;;;;;;;24.32;69.79;94124.00;4906465;29;20984;-90
2021/07/18 22:04:08;;;;;;;9.90;8.83;;;;;;;24.05;70.69;94136.19;4902529;29;20506;-86
2021/07/18 22:06:36;;;;;;;12.93;10.30;;;;;;;23.97;71.13;94136.50;4904165;29;21000;-89
2021/07/18 22:09:07;;;;;;;13.80;9.23;;;;;;;23.97;70.84;94142.69;4904059;29;21014;-88
2021/07/18 22:11:34;;;;;;;10.70;9.70;;;;;;;24.05;70.83;94153.09;4904235;29;20484;-89
2021/07/18 22:14:03;;;;;;;10.80;9.70;;;;;;;24.08;70.60;94149.94;4905262;29;20528;-90
2021/07/18 22:16:30;;;;;;;10.37;8.70;;;;;;;24.17;70.62;94146.91;4905030;29;20466;-89
2021/07/18 22:18:57;;;;;;;9.20;8.30;;;;;;;24.18;70.85;94153.91;4905754;29;20473;-89
2021/07/18 22:21:32;;;;;;;16.57;9.47;;;;;;;24.09;71.14;94156.94;4904393;29;20550;-87
2021/07/18 22:24:00;;;;;;;9.53;8.60;;;;;;;24.12;71.56;94160.19;4903789;29;20462;-89
2021/07/18 22:26:27;;;;;;;10.97;8.57;;;;;;;23.99;71.59;94163.91;4904207;29;20462;-89